createdAt,value
2018-08-24T00:00:25.575Z,20.22
2018-08-24T00:02:54.148Z,20.21
2018-08-24T00:05:22.672Z,20.15
2018-08-24T00:07:51.205Z,20.09
2018-08-24T00:10:19.658Z,20.12
2018-08-24T00:12:48.228Z,20.11
2018-08-24T00:15:16.728Z,20.11
2018-08-24T00:17:48.477Z,20.05
2018-08-24T00:20:16.965Z,20.00
2018-08-24T00:22:45.466Z,20.06
2018-08-24T00:25:13.929Z,20.06
2018-08-24T00:27:42.486Z,20.07
2018-08-24T00:30:11.047Z,20.03
2018-08-24T00:32:39.590Z,20.03
2018-08-24T00:35:08.053Z,20.05
2018-08-24T00:37:36.549Z,20.01
2018-08-24T00:40:05.110Z,20.07
2018-08-24T00:42:33.686Z,20.10
2018-08-24T00:45:02.194Z,20.08
2018-08-24T00:47:31.506Z,20.05
2018-08-24T00:50:00.081Z,20.10
2018-08-24T00:52:28.570Z,20.09
2018-08-24T00:54:57.103Z,20.09
2018-08-24T00:57:25.590Z,20.09
2018-08-24T00:59:54.102Z,20.11
2018-08-24T01:02:22.651Z,20.10
2018-08-24T01:04:51.086Z,20.16
2018-08-24T01:07:19.534Z,20.23
2018-08-24T01:09:48.045Z,20.26
2018-08-24T01:12:17.506Z,20.25
2018-08-24T01:14:47.256Z,20.28
2018-08-24T01:17:21.117Z,20.28
2018-08-24T01:19:49.586Z,20.31
2018-08-24T01:22:18.022Z,20.30
2018-08-24T01:24:46.532Z,20.32
2018-08-24T01:27:14.995Z,20.35
2018-08-24T01:29:44.275Z,20.35
2018-08-24T01:32:14.677Z,20.42
2018-08-24T01:34:43.268Z,20.48
2018-08-24T01:37:11.746Z,20.54
2018-08-24T01:39:40.166Z,20.54
2018-08-24T01:42:08.609Z,20.59
2018-08-24T01:44:37.104Z,20.63
2018-08-24T01:47:05.617Z,20.60
2018-08-24T01:49:34.186Z,20.61
2018-08-24T01:52:02.655Z,20.59
2018-08-24T01:54:32.120Z,20.61
2018-08-24T01:57:00.553Z,20.65
2018-08-24T01:59:29.033Z,20.61
2018-08-24T02:01:57.490Z,20.68
2018-08-24T02:04:25.998Z,20.69
2018-08-24T02:06:54.622Z,20.69
2018-08-24T02:09:23.724Z,20.45
2018-08-24T02:11:52.458Z,20.26
2018-08-24T02:14:26.361Z,19.96
2018-08-24T02:16:54.970Z,19.86
2018-08-24T02:19:28.734Z,19.76
2018-08-24T02:22:02.375Z,19.68
2018-08-24T02:24:31.216Z,19.64
2018-08-24T02:26:59.617Z,19.63
2018-08-24T02:29:28.138Z,19.58
2018-08-24T02:31:56.650Z,19.54
2018-08-24T02:34:25.207Z,19.50
2018-08-24T02:36:53.729Z,19.53
2018-08-24T02:39:22.166Z,19.49
2018-08-24T02:41:50.664Z,19.51
2018-08-24T02:44:19.142Z,19.52
2018-08-24T02:46:47.627Z,19.49
2018-08-24T02:49:16.120Z,19.46
2018-08-24T02:51:44.749Z,19.44
2018-08-24T02:54:13.269Z,19.46
2018-08-24T02:56:41.887Z,19.48
2018-08-24T02:59:10.314Z,19.46
2018-08-24T03:01:38.802Z,19.47
2018-08-24T03:04:07.316Z,19.40
2018-08-24T03:06:35.834Z,19.37
2018-08-24T03:09:07.101Z,19.38
2018-08-24T03:11:35.619Z,19.35
2018-08-24T03:14:04.079Z,19.32
2018-08-24T03:16:32.849Z,19.28
2018-08-24T03:19:01.389Z,19.27
2018-08-24T03:21:29.841Z,19.24
2018-08-24T03:23:58.346Z,19.21
2018-08-24T03:26:26.796Z,19.21
2018-08-24T03:28:55.549Z,19.26
2018-08-24T03:31:24.066Z,19.28
2018-08-24T03:33:52.513Z,19.25
2018-08-24T03:36:21.014Z,19.25
2018-08-24T03:38:49.487Z,19.22
2018-08-24T03:41:17.986Z,19.19
2018-08-24T03:43:46.433Z,19.13
2018-08-24T03:46:14.950Z,19.12
2018-08-24T03:48:43.530Z,19.09
2018-08-24T03:51:11.997Z,19.09
2018-08-24T03:53:40.466Z,19.07
2018-08-24T03:56:08.994Z,19.05
2018-08-24T03:58:37.425Z,19.04
2018-08-24T04:01:06.034Z,19.01
2018-08-24T04:03:34.502Z,18.97
2018-08-24T04:06:03.018Z,18.93
2018-08-24T04:08:31.710Z,18.92
2018-08-24T04:11:00.187Z,18.95
2018-08-24T04:13:28.635Z,18.92
2018-08-24T04:15:57.078Z,19.01
2018-08-24T04:18:25.491Z,19.02
2018-08-24T04:20:54.085Z,19.03
2018-08-24T04:23:22.565Z,19.02
2018-08-24T04:25:51.093Z,19.02
2018-08-24T04:28:19.545Z,19.00
2018-08-24T04:30:48.126Z,19.01
2018-08-24T04:33:16.810Z,18.99
2018-08-24T04:35:45.305Z,19.02
2018-08-24T04:38:13.933Z,19.10
2018-08-24T04:40:42.609Z,19.09
2018-08-24T04:43:11.061Z,19.10
2018-08-24T04:45:39.757Z,19.23
2018-08-24T04:48:08.163Z,19.22
2018-08-24T04:50:36.593Z,19.25
2018-08-24T04:53:05.092Z,19.25
2018-08-24T04:55:33.859Z,19.31
2018-08-24T04:58:02.360Z,19.40
2018-08-24T05:00:30.971Z,19.46
2018-08-24T05:02:59.440Z,19.48
2018-08-24T05:05:27.891Z,19.54
2018-08-24T05:07:56.493Z,19.51
2018-08-24T05:10:25.886Z,19.52
2018-08-24T05:12:54.405Z,19.55
2018-08-24T05:15:22.825Z,19.69
2018-08-24T05:17:51.343Z,19.75
2018-08-24T05:20:19.794Z,19.84
2018-08-24T05:22:48.298Z,19.90
2018-08-24T05:25:16.749Z,19.95
2018-08-24T05:27:45.305Z,19.95
2018-08-24T05:30:13.726Z,19.95
2018-08-24T05:32:42.382Z,20.00
2018-08-24T05:35:10.779Z,20.06
2018-08-24T05:37:39.282Z,20.13
2018-08-24T05:40:07.768Z,20.23
2018-08-24T05:42:36.218Z,20.31
2018-08-24T05:45:05.226Z,20.40
2018-08-24T05:47:33.790Z,20.41
2018-08-24T05:50:02.302Z,20.50
2018-08-24T05:52:30.914Z,20.51
2018-08-24T05:54:59.362Z,20.56
2018-08-24T05:57:27.870Z,20.60
2018-08-24T05:59:56.349Z,20.67
2018-08-24T06:02:25.226Z,20.72
2018-08-24T06:04:54.317Z,20.76
2018-08-24T06:07:22.773Z,20.75
2018-08-24T06:09:51.270Z,20.77
2018-08-24T06:12:19.823Z,20.79
2018-08-24T06:14:48.257Z,20.83
2018-08-24T06:17:21.937Z,20.83
2018-08-24T06:19:50.436Z,20.81
2018-08-24T06:22:18.886Z,20.79
2018-08-24T06:24:47.470Z,20.81
2018-08-24T06:27:15.952Z,20.82
2018-08-24T06:29:44.614Z,20.83
2018-08-24T06:32:13.133Z,20.83
2018-08-24T06:34:41.817Z,20.84
2018-08-24T06:37:10.342Z,20.84
2018-08-24T06:39:38.794Z,20.79
2018-08-24T06:42:07.330Z,20.77
2018-08-24T06:44:36.033Z,20.73
2018-08-24T06:47:04.601Z,20.74
2018-08-24T06:49:33.557Z,20.74
2018-08-24T06:52:02.002Z,20.76
2018-08-24T06:54:30.858Z,20.72
2018-08-24T06:56:59.366Z,20.76
2018-08-24T06:59:27.884Z,20.81
2018-08-24T07:01:58.682Z,20.85
2018-08-24T07:04:27.410Z,20.82
2018-08-24T07:06:56.193Z,20.85
2018-08-24T07:09:24.690Z,20.89
2018-08-24T07:11:53.303Z,20.98
2018-08-24T07:14:21.729Z,21.11
2018-08-24T07:16:54.367Z,21.27
2018-08-24T07:19:22.864Z,21.38
2018-08-24T07:21:51.426Z,21.57
2018-08-24T07:24:19.862Z,21.84
2018-08-24T07:26:48.333Z,22.00
2018-08-24T07:29:16.870Z,22.26
2018-08-24T07:31:45.463Z,22.32
2018-08-24T07:34:13.925Z,22.51
2018-08-24T07:36:42.631Z,22.61
2018-08-24T07:39:13.173Z,22.92
2018-08-24T07:41:41.683Z,23.09
2018-08-24T07:44:10.712Z,23.49
2018-08-24T07:46:39.567Z,23.48
2018-08-24T07:49:08.838Z,23.69
2018-08-24T07:51:38.162Z,24.06
2018-08-24T07:54:06.682Z,24.52
2018-08-24T07:56:35.150Z,24.69
2018-08-24T07:59:03.997Z,24.55
2018-08-24T08:01:33.097Z,24.49
2018-08-24T08:04:03.030Z,24.37
2018-08-24T08:06:31.697Z,24.15
2018-08-24T08:09:00.701Z,24.06
2018-08-24T08:11:35.173Z,24.14
2018-08-24T08:14:04.029Z,24.08
2018-08-24T08:16:32.882Z,24.24
2018-08-24T08:19:01.301Z,24.03
2018-08-24T08:21:29.862Z,23.94
2018-08-24T08:23:58.393Z,23.67
2018-08-24T08:26:26.875Z,23.63
2018-08-24T08:28:55.419Z,23.66
2018-08-24T08:31:23.945Z,23.96
2018-08-24T08:33:52.425Z,24.10
2018-08-24T08:36:20.911Z,24.03
2018-08-24T08:38:49.453Z,24.20
2018-08-24T08:41:17.897Z,24.52
2018-08-24T08:43:46.306Z,24.43
2018-08-24T08:46:14.805Z,24.45
2018-08-24T08:48:43.372Z,24.40
2018-08-24T08:51:11.885Z,24.28
2018-08-24T08:53:40.354Z,24.85
2018-08-24T08:56:08.897Z,24.74
2018-08-24T08:58:37.377Z,25.00
2018-08-24T09:01:06.023Z,25.24
2018-08-24T09:03:34.498Z,25.31
2018-08-24T09:06:03.130Z,25.10
2018-08-24T09:08:32.086Z,25.10
2018-08-24T09:11:00.621Z,24.81
2018-08-24T09:13:29.178Z,25.27
2018-08-24T09:15:57.638Z,25.46
2018-08-24T09:18:32.129Z,25.40
2018-08-24T09:21:05.901Z,25.42
2018-08-24T09:23:39.860Z,26.04
2018-08-24T09:26:13.707Z,26.46
2018-08-24T09:28:42.414Z,26.68
2018-08-24T09:31:15.061Z,26.83
2018-08-24T09:33:43.602Z,26.81
2018-08-24T09:36:17.245Z,27.36
2018-08-24T09:38:45.702Z,27.59
2018-08-24T09:41:14.359Z,26.90
2018-08-24T09:43:48.163Z,27.12
2018-08-24T09:46:17.666Z,27.48
2018-08-24T09:48:51.438Z,28.08
2018-08-24T09:51:26.808Z,27.89
2018-08-24T09:54:00.809Z,28.40
2018-08-24T09:56:30.250Z,27.67
2018-08-24T09:58:59.105Z,27.25
2018-08-24T10:01:33.018Z,26.71
2018-08-24T10:04:06.898Z,26.28
2018-08-24T10:06:40.685Z,26.02
2018-08-24T10:09:10.972Z,26.73
2018-08-24T10:11:39.802Z,26.67
2018-08-24T10:14:08.652Z,26.76
2018-08-24T10:16:37.460Z,27.25
2018-08-24T10:19:06.169Z,27.24
2018-08-24T10:21:34.625Z,26.47
2018-08-24T10:24:04.229Z,26.44
2018-08-24T10:26:33.009Z,26.45
2018-08-24T10:29:01.569Z,25.85
2018-08-24T10:31:30.313Z,25.78
2018-08-24T10:33:58.863Z,25.79
2018-08-24T10:36:27.425Z,25.80
2018-08-24T10:38:56.140Z,25.80
2018-08-24T10:41:24.792Z,26.03
2018-08-24T10:43:53.480Z,25.85
2018-08-24T10:46:21.949Z,26.02
2018-08-24T10:48:50.590Z,25.92
2018-08-24T10:51:19.161Z,26.11
2018-08-24T10:53:47.720Z,26.58
2018-08-24T10:56:16.248Z,26.38
2018-08-24T10:58:44.990Z,25.92
2018-08-24T11:01:13.462Z,25.81
2018-08-24T11:03:42.300Z,25.46
2018-08-24T11:06:10.842Z,25.87
2018-08-24T11:08:39.270Z,26.18
2018-08-24T11:11:07.935Z,28.14
2018-08-24T11:13:36.437Z,29.55
2018-08-24T11:16:04.929Z,30.06
2018-08-24T11:18:33.571Z,30.97
2018-08-24T11:21:02.238Z,32.25
2018-08-24T11:23:31.028Z,34.07
2018-08-24T11:25:59.983Z,33.65
2018-08-24T11:28:28.596Z,32.49
2018-08-24T11:30:57.002Z,31.56
2018-08-24T11:33:25.563Z,29.87
2018-08-24T11:35:57.136Z,29.22
2018-08-24T11:38:25.599Z,29.17
2018-08-24T11:40:54.090Z,28.79
2018-08-24T11:43:22.621Z,29.21
2018-08-24T11:48:13.676Z,30.62
2018-08-24T11:50:42.271Z,31.01
2018-08-24T11:53:10.989Z,29.46
2018-08-24T11:55:39.477Z,29.90
2018-08-24T11:58:07.981Z,29.73
2018-08-24T12:00:36.514Z,28.50
2018-08-24T12:03:05.233Z,27.89
2018-08-24T12:05:33.831Z,27.75
2018-08-24T12:08:02.443Z,28.88
2018-08-24T12:10:30.842Z,30.79
2018-08-24T12:12:59.403Z,30.28
2018-08-24T12:15:27.874Z,28.94
2018-08-24T12:17:56.662Z,27.99
2018-08-24T12:20:25.375Z,27.43
2018-08-24T12:22:54.217Z,26.84
2018-08-24T12:25:22.889Z,26.63
2018-08-24T12:27:51.362Z,26.63
2018-08-24T12:30:19.911Z,26.17
2018-08-24T12:32:48.482Z,26.17
2018-08-24T12:35:16.981Z,26.10
2018-08-24T12:37:46.801Z,25.53
2018-08-24T12:40:15.850Z,25.32
2018-08-24T12:42:44.585Z,24.85
2018-08-24T12:45:13.518Z,24.86
2018-08-24T12:47:42.262Z,24.63
2018-08-24T12:50:11.098Z,24.91
2018-08-24T12:52:39.649Z,24.54
2018-08-24T12:55:08.221Z,24.80
2018-08-24T12:57:36.661Z,24.40
2018-08-24T13:00:05.238Z,24.08
2018-08-24T13:02:34.492Z,23.90
2018-08-24T13:05:03.029Z,23.83
2018-08-24T13:07:31.645Z,23.79
2018-08-24T13:10:00.145Z,23.71
2018-08-24T13:12:28.687Z,23.83
2018-08-24T13:14:57.167Z,23.96
2018-08-24T13:17:25.762Z,24.17
2018-08-24T13:19:54.385Z,23.89
2018-08-24T13:22:23.048Z,23.59
2018-08-24T13:24:51.669Z,23.19
2018-08-24T13:27:20.245Z,22.82
2018-08-24T13:29:48.634Z,22.47
2018-08-24T13:32:17.221Z,22.31
2018-08-24T13:34:45.701Z,21.95
2018-08-24T13:37:14.228Z,21.71
2018-08-24T13:39:42.885Z,21.66
2018-08-24T13:42:11.534Z,21.45
2018-08-24T13:44:40.189Z,21.30
2018-08-24T13:47:08.649Z,21.24
2018-08-24T13:49:37.138Z,21.11
2018-08-24T13:52:06.020Z,20.94
2018-08-24T13:54:34.537Z,20.77
2018-08-24T13:57:03.107Z,20.62
2018-08-24T13:59:31.766Z,20.75
2018-08-24T14:02:00.297Z,21.02
2018-08-24T14:04:28.709Z,21.18
2018-08-24T14:06:57.253Z,21.24
2018-08-24T14:09:25.734Z,20.74
2018-08-24T14:11:54.334Z,20.42
2018-08-24T14:14:22.749Z,20.38
2018-08-24T14:16:51.365Z,20.37
2018-08-24T14:19:19.874Z,20.38
2018-08-24T14:21:48.389Z,20.38
2018-08-24T14:24:16.931Z,20.42
2018-08-24T14:26:45.603Z,20.60
2018-08-24T14:29:13.981Z,20.74
2018-08-24T14:31:42.530Z,20.61
2018-08-24T14:34:10.926Z,20.60
2018-08-24T14:36:39.777Z,20.70
2018-08-24T14:39:09.686Z,20.79
2018-08-24T14:41:38.195Z,20.90
2018-08-24T14:44:07.229Z,20.86
2018-08-24T14:46:35.853Z,20.88
2018-08-24T14:49:04.646Z,20.74
2018-08-24T14:51:33.510Z,20.63
2018-08-24T14:54:02.047Z,20.57
2018-08-24T14:56:30.565Z,20.49
2018-08-24T14:58:59.164Z,20.67
2018-08-24T15:01:27.678Z,20.99
2018-08-24T15:03:56.413Z,21.11
2018-08-24T15:06:24.885Z,21.33
2018-08-24T15:08:53.458Z,21.45
2018-08-24T15:11:21.994Z,21.52
2018-08-24T15:13:50.582Z,21.50
2018-08-24T15:16:20.186Z,21.86
2018-08-24T15:18:48.977Z,22.11
2018-08-24T15:21:17.469Z,22.60
2018-08-24T15:23:45.970Z,22.98
2018-08-24T15:26:14.503Z,22.87
2018-08-24T15:28:43.112Z,22.58
2018-08-24T15:31:11.713Z,21.98
2018-08-24T15:33:40.214Z,21.49
2018-08-24T15:36:08.731Z,21.21
2018-08-24T15:38:37.174Z,21.30
2018-08-24T15:41:05.641Z,21.22
2018-08-24T15:43:34.250Z,21.16
2018-08-24T15:46:02.774Z,21.00
2018-08-24T15:48:31.509Z,21.09
2018-08-24T15:50:59.945Z,21.05
2018-08-24T15:53:28.483Z,21.09
2018-08-24T15:55:56.962Z,21.13
2018-08-24T15:58:25.606Z,21.19
2018-08-24T16:00:54.158Z,21.34
2018-08-24T16:03:22.789Z,21.63
2018-08-24T16:05:51.355Z,21.91
2018-08-24T16:08:20.126Z,23.12
2018-08-24T16:10:48.549Z,24.48
2018-08-24T16:13:17.119Z,25.42
2018-08-24T16:15:46.195Z,27.26
2018-08-24T16:18:20.065Z,27.21
2018-08-24T16:20:48.725Z,27.74
2018-08-24T16:23:17.279Z,27.48
2018-08-24T16:25:46.077Z,28.34
2018-08-24T16:28:14.579Z,27.47
2018-08-24T16:30:43.244Z,27.39
2018-08-24T16:33:11.730Z,25.96
2018-08-24T16:35:40.274Z,24.63
2018-08-24T16:38:08.769Z,23.88
2018-08-24T16:40:37.373Z,24.03
2018-08-24T16:43:05.829Z,23.18
2018-08-24T16:45:34.541Z,22.74
2018-08-24T16:48:03.386Z,22.39
2018-08-24T16:50:32.324Z,22.13
2018-08-24T16:53:00.762Z,21.83
2018-08-24T16:55:29.334Z,21.91
2018-08-24T16:57:57.911Z,21.70
2018-08-24T17:00:26.434Z,21.32
2018-08-24T17:02:55.049Z,21.60
2018-08-24T17:05:23.658Z,21.52
2018-08-24T17:07:52.274Z,21.44
2018-08-24T17:10:20.757Z,21.23
2018-08-24T17:12:49.327Z,20.88
2018-08-24T17:15:17.810Z,20.85
2018-08-24T17:17:46.506Z,20.51
2018-08-24T17:20:14.994Z,20.17
2018-08-24T17:22:43.814Z,20.00
2018-08-24T17:25:12.294Z,19.89
2018-08-24T17:27:40.712Z,19.61
2018-08-24T17:30:09.330Z,19.52
2018-08-24T17:32:37.858Z,19.33
2018-08-24T17:35:07.386Z,19.28
2018-08-24T17:37:36.462Z,19.24
2018-08-24T17:40:05.165Z,19.31
2018-08-24T17:42:34.226Z,19.30
2018-08-24T17:45:02.866Z,19.24
2018-08-24T17:47:31.877Z,19.35
2018-08-24T17:50:00.382Z,19.20
2018-08-24T17:52:28.847Z,19.26
2018-08-24T17:54:57.455Z,19.25
2018-08-24T17:57:25.935Z,19.21
2018-08-24T17:59:54.762Z,19.20
2018-08-24T18:02:23.225Z,19.17
2018-08-24T18:04:51.935Z,19.07
2018-08-24T18:07:20.423Z,18.99
2018-08-24T18:09:49.194Z,18.87
2018-08-24T18:12:17.753Z,18.75
2018-08-24T18:14:46.406Z,18.65
2018-08-24T18:17:15.030Z,18.53
2018-08-24T18:19:43.709Z,18.43
2018-08-24T18:22:12.128Z,18.29
2018-08-24T18:24:40.704Z,18.15
2018-08-24T18:27:09.306Z,18.04
2018-08-24T18:29:37.813Z,17.96
2018-08-24T18:32:06.421Z,17.86
2018-08-24T18:34:34.824Z,17.83
2018-08-24T18:37:03.502Z,17.81
2018-08-24T18:39:32.447Z,17.75
2018-08-24T18:42:01.066Z,17.66
2018-08-24T18:44:29.474Z,17.51
2018-08-24T18:46:58.054Z,17.45
2018-08-24T18:49:26.560Z,17.41
2018-08-24T18:51:55.160Z,17.38
2018-08-24T18:54:26.502Z,17.45
2018-08-24T18:56:55.488Z,17.37
2018-08-24T18:59:24.253Z,17.33
2018-08-24T19:01:53.334Z,17.34
2018-08-24T19:04:21.867Z,17.36
2018-08-24T19:06:50.450Z,17.47
2018-08-24T19:09:18.923Z,17.50
2018-08-24T19:14:28.045Z,17.48
2018-08-24T19:16:56.623Z,17.51
2018-08-24T19:19:30.485Z,17.47
2018-08-24T19:22:01.069Z,17.45
2018-08-24T19:24:29.772Z,17.37
2018-08-24T19:26:58.247Z,17.31
2018-08-24T19:29:32.121Z,17.26
2018-08-24T19:32:01.034Z,17.29
2018-08-24T19:34:29.563Z,17.29
2018-08-24T19:36:58.069Z,17.31
2018-08-24T19:39:26.604Z,17.46
2018-08-24T19:42:00.278Z,17.53
2018-08-24T19:44:28.818Z,17.52
2018-08-24T19:46:57.293Z,17.52
2018-08-24T19:49:26.072Z,17.39
2018-08-24T19:51:54.663Z,17.41
2018-08-24T19:54:23.132Z,17.39
2018-08-24T19:56:51.682Z,17.36
2018-08-24T19:59:20.153Z,17.31
2018-08-24T20:01:48.797Z,17.23
2018-08-24T20:04:17.338Z,17.19
2018-08-24T20:06:51.885Z,17.11
2018-08-24T20:09:25.648Z,17.27
2018-08-24T20:11:54.249Z,17.28
2018-08-24T20:14:28.092Z,17.25
2018-08-24T20:17:02.032Z,17.35
2018-08-24T20:19:30.454Z,17.35
2018-08-24T20:21:59.234Z,17.31
2018-08-24T20:24:27.848Z,17.32
2018-08-24T20:26:56.480Z,17.39
2018-08-24T20:29:25.058Z,17.44
2018-08-24T20:31:53.858Z,17.40
2018-08-24T20:34:22.662Z,17.38
2018-08-24T20:36:51.241Z,17.37
2018-08-24T20:39:19.982Z,17.29
2018-08-24T20:41:48.543Z,17.27
2018-08-24T20:44:17.142Z,17.30
2018-08-24T20:46:45.779Z,17.29
2018-08-24T20:49:14.486Z,17.31
2018-08-24T20:51:43.181Z,17.34
2018-08-24T20:54:11.757Z,17.27
2018-08-24T20:56:40.254Z,17.23
2018-08-24T20:59:08.909Z,17.21
2018-08-24T21:01:37.365Z,17.18
2018-08-24T21:04:05.935Z,17.15
2018-08-24T21:06:34.735Z,17.15
2018-08-24T21:09:03.382Z,17.10
2018-08-24T21:11:32.486Z,17.03
2018-08-24T21:14:00.971Z,16.95
2018-08-24T21:16:29.638Z,16.92
2018-08-24T21:18:58.237Z,16.84
2018-08-24T21:21:26.897Z,16.78
2018-08-24T21:23:55.517Z,16.79
2018-08-24T21:26:24.121Z,16.72
2018-08-24T21:28:52.855Z,16.74
2018-08-24T21:31:21.465Z,16.65
2018-08-24T21:33:49.994Z,16.69
2018-08-24T21:36:18.486Z,16.63
2018-08-24T21:38:47.178Z,16.58
2018-08-24T21:41:15.774Z,16.51
2018-08-24T21:43:44.557Z,16.42
2018-08-24T21:46:13.045Z,16.43
2018-08-24T21:48:41.914Z,16.44
2018-08-24T21:51:10.433Z,16.47
2018-08-24T21:53:39.058Z,16.41
2018-08-24T21:56:07.864Z,16.35
2018-08-24T21:58:36.616Z,16.32
2018-08-24T22:01:05.264Z,16.26
2018-08-24T22:03:34.350Z,16.25
2018-08-24T22:06:02.908Z,16.20
2018-08-24T22:08:31.691Z,16.20
2018-08-24T22:11:00.334Z,16.23
2018-08-24T22:13:28.878Z,16.23
2018-08-24T22:15:57.523Z,16.11
2018-08-24T22:18:26.204Z,16.03
2018-08-24T22:20:54.945Z,15.97
2018-08-24T22:23:23.468Z,15.86
2018-08-24T22:25:51.997Z,15.74
2018-08-24T22:28:20.402Z,15.76
2018-08-24T22:30:49.126Z,15.68
2018-08-24T22:33:17.569Z,15.71
2018-08-24T22:35:46.411Z,15.69
2018-08-24T22:38:14.826Z,15.70
2018-08-24T22:40:43.521Z,15.62
2018-08-24T22:43:17.302Z,15.57
2018-08-24T22:45:45.741Z,15.53
2018-08-24T22:48:14.227Z,15.64
2018-08-24T22:50:42.802Z,15.56
2018-08-24T22:53:11.507Z,15.45
2018-08-24T22:55:39.950Z,15.37
2018-08-24T22:58:08.551Z,15.35
2018-08-24T23:00:37.109Z,15.24
2018-08-24T23:03:05.868Z,15.21
2018-08-24T23:05:34.646Z,15.20
2018-08-24T23:08:03.061Z,15.14
2018-08-24T23:10:31.792Z,15.08
2018-08-24T23:13:00.217Z,15.02
2018-08-24T23:15:28.638Z,14.96
2018-08-24T23:17:57.074Z,14.94
2018-08-24T23:20:25.584Z,14.90
2018-08-24T23:22:54.109Z,14.84
2018-08-24T23:25:22.546Z,14.74
2018-08-24T23:27:51.196Z,14.68
2018-08-24T23:30:19.656Z,14.67
2018-08-24T23:32:48.077Z,14.67
2018-08-24T23:35:16.560Z,14.61
2018-08-24T23:37:45.214Z,14.52
2018-08-24T23:40:13.657Z,14.47
2018-08-24T23:42:42.182Z,14.42
2018-08-24T23:45:10.605Z,14.41
2018-08-24T23:47:39.091Z,14.36
2018-08-24T23:50:07.746Z,14.42
2018-08-24T23:52:36.178Z,14.35
2018-08-24T23:55:04.678Z,14.29
2018-08-24T23:57:34.137Z,14.25
